Time,TemperatureF,DewpointF,PressureIn,WindDirection,WindDirectionDegrees,WindSpeedMPH,WindSpeedGustMPH,Humidity,HourlyPrecipIn,Conditions,Clouds,dailyrainin,SoftwareType,DateUTC
2013-03-29 00:00:00,32.4,31.1,30.25,ESE,121,9.0,11.5,95,0.00,,CLR,0.00,VWS V14.01,2013-03-29 05:00:00,
2013-03-29 00:05:00,32.6,31.3,30.25,SE,130,11.0,11.5,95,0.00,,CLR,0.00,VWS V14.01,2013-03-29 05:05:00,
2013-03-29 00:15:00,33.2,31.9,30.25,SE,126,11.0,13.6,95,0.00,,CLR,0.00,VWS V14.01,2013-03-29 05:15:00,
2013-03-29 00:20:00,33.3,32.0,30.25,ESE,121,11.0,12.6,95,0.00,,CLR,0.00,VWS V14.01,2013-03-29 05:20:00,
2013-03-29 00:25:00,33.2,31.9,30.25,SE,128,9.0,13.6,95,0.00,,CLR,0.00,VWS V14.01,2013-03-29 05:25:00,
2013-03-29 00:30:00,33.1,31.8,30.25,SE,129,10.0,12.6,95,0.00,,CLR,0.00,VWS V14.01,2013-03-29 05:30:00,
2013-03-29 00:35:00,32.9,31.4,30.25,SE,126,11.0,13.6,94,0.00,,CLR,0.00,VWS V14.01,2013-03-29 05:35:00,
2013-03-29 00:40:00,32.7,31.2,30.25,SE,135,9.0,12.6,94,0.00,,CLR,0.00,VWS V14.01,2013-03-29 05:40:00,
2013-03-29 00:45:00,32.5,31.2,30.25,SE,136,8.0,11.5,95,0.00,,CLR,0.00,VWS V14.01,2013-03-29 05:45:00,
2013-03-29 00:50:00,32.1,30.6,30.25,SE,138,7.0,9.4,94,0.00,,CLR,0.00,VWS V14.01,2013-03-29 05:50:00,
2013-03-29 00:55:00,31.8,30.3,30.25,SE,144,8.0,10.5,94,0.00,,CLR,0.00,VWS V14.01,2013-03-29 05:55:00,
2013-03-29 01:00:00,31.6,30.3,30.25,SE,141,9.0,9.4,95,0.00,,CLR,0.00,VWS V14.01,2013-03-29 06:00:00,
2013-03-29 01:10:00,31.6,30.3,30.25,SE,137,8.0,9.4,95,0.00,,CLR,0.00,VWS V14.01,2013-03-29 06:10:00,
2013-03-29 01:15:00,31.6,30.3,30.25,SE,133,8.0,9.4,95,0.00,,CLR,0.00,VWS V14.01,2013-03-29 06:15:00,
2013-03-29 01:25:00,32.3,31.3,30.26,SE,131,9.0,9.4,96,0.00,,CLR,0.00,VWS V14.01,2013-03-29 06:25:00,
2013-03-29 01:30:00,32.4,31.4,30.26,SE,124,9.0,10.5,96,0.00,,CLR,0.00,VWS V14.01,2013-03-29 06:30:00,
2013-03-29 01:35:00,32.5,31.2,30.26,SE,128,8.0,10.5,95,0.00,,CLR,0.00,VWS V14.01,2013-03-29 06:35:00,
2013-03-29 01:40:00,32.6,31.3,30.26,SE,131,8.0,11.5,95,0.00,,CLR,0.00,VWS V14.01,2013-03-29 06:40:00,
2013-03-29 01:45:00,32.7,31.4,30.26,SE,128,9.0,10.5,95,0.00,,CLR,0.00,VWS V14.01,2013-03-29 06:45:00,
2013-03-29 01:55:00,32.6,31.3,30.26,ESE,120,9.0,11.5,95,0.00,,CLR,0.00,VWS V14.01,2013-03-29 06:55:00,
2013-03-29 02:00:00,32.6,31.3,30.26,SE,127,10.0,11.5,95,0.00,,CLR,0.00,VWS V14.01,2013-03-29 07:00:00,
2013-03-29 02:05:00,32.7,31.4,30.26,ESE,119,9.0,11.5,95,0.00,,CLR,0.00,VWS V14.01,2013-03-29 07:05:00,
2013-03-29 02:10:00,32.8,31.5,30.26,ESE,121,11.0,12.6,95,0.00,,CLR,0.00,VWS V14.01,2013-03-29 07:10:00,
2013-03-29 02:15:00,32.7,31.4,30.26,SE,128,10.0,11.5,95,0.00,,CLR,0.00,VWS V14.01,2013-03-29 07:15:00,
2013-03-29 02:20:00,32.7,31.4,30.25,SE,128,8.0,11.5,95,0.00,,CLR,0.00,VWS V14.01,2013-03-29 07:20:00,
2013-03-29 02:25:00,32.7,31.4,30.25,SE,126,9.0,12.6,95,0.00,,CLR,0.00,VWS V14.01,2013-03-29 07:25:00,
2013-03-29 02:30:00,32.8,31.5,30.25,SE,126,10.0,11.5,95,0.00,,CLR,0.00,VWS V14.01,2013-03-29 07:30:00,
2013-03-29 02:35:00,32.8,31.5,30.25,ESE,123,10.0,13.6,95,0.00,,CLR,0.00,VWS V14.01,2013-03-29 07:35:00,
2013-03-29 02:40:00,32.9,31.6,30.25,SE,127,8.0,12.6,95,0.00,,CLR,0.00,VWS V14.01,2013-03-29 07:40:00,
2013-03-29 02:45:00,32.9,31.6,30.25,SE,129,8.0,11.5,95,0.00,,CLR,0.00,VWS V14.01,2013-03-29 07:45:00,
2013-03-29 02:55:00,33.0,31.7,30.25,SE,126,8.0,12.6,95,0.00,,CLR,0.00,VWS V14.01,2013-03-29 07:55:00,
2013-03-29 03:00:00,33.0,31.7,30.25,SE,129,9.0,11.5,95,0.00,,CLR,0.00,VWS V14.01,2013-03-29 08:00:00,
2013-03-29 03:05:00,32.9,31.4,30.25,ESE,121,10.0,11.5,94,0.00,,CLR,0.00,VWS V14.01,2013-03-29 08:05:00,
2013-03-29 03:10:00,32.8,31.3,30.25,SE,128,9.0,11.5,94,0.00,,CLR,0.00,VWS V14.01,2013-03-29 08:10:00,
2013-03-29 03:15:00,32.6,31.3,30.25,SE,126,10.0,11.5,95,0.00,,CLR,0.00,VWS V14.01,2013-03-29 08:15:00,
2013-03-29 03:20:00,32.5,31.0,30.25,SE,126,9.0,12.6,94,0.00,,CLR,0.00,VWS V14.01,2013-03-29 08:20:00,
2013-03-29 03:25:00,32.3,30.8,30.25,SE,130,9.0,11.5,94,0.00,,CLR,0.00,VWS V14.01,2013-03-29 08:25:00,
2013-03-29 03:30:00,32.1,30.8,30.25,SE,128,10.0,11.5,95,0.00,,CLR,0.00,VWS V14.01,2013-03-29 08:30:00,
2013-03-29 03:35:00,32.0,30.7,30.25,SE,132,11.0,11.5,95,0.00,,CLR,0.00,VWS V14.01,2013-03-29 08:35:00,
2013-03-29 03:40:00,31.9,30.6,30.24,SE,130,11.0,12.6,95,0.00,,CLR,0.00,VWS V14.01,2013-03-29 08:40:00,
2013-03-29 03:45:00,31.7,30.4,30.24,SE,137,11.0,11.5,95,0.00,,CLR,0.00,VWS V14.01,2013-03-29 08:45:00,
2013-03-29 03:50:00,31.5,30.2,30.24,SE,136,10.0,12.6,95,0.00,,CLR,0.00,VWS V14.01,2013-03-29 08:50:00,
2013-03-29 03:55:00,31.3,29.8,30.24,SE,136,9.0,11.5,94,0.00,,CLR,0.00,VWS V14.01,2013-03-29 08:55:00,
2013-03-29 04:00:00,31.1,29.8,30.24,SE,134,11.0,11.5,95,0.00,,CLR,0.00,VWS V14.01,2013-03-29 09:00:00,
2013-03-29 04:05:00,31.1,29.8,30.24,SE,133,8.0,12.6,95,0.00,,CLR,0.00,VWS V14.01,2013-03-29 09:05:00,
2013-03-29 04:10:00,31.2,29.9,30.24,SE,128,12.0,12.6,95,0.00,,CLR,0.00,VWS V14.01,2013-03-29 09:10:00,
2013-03-29 04:15:00,31.3,30.0,30.23,SE,129,9.0,12.6,95,0.00,,CLR,0.00,VWS V14.01,2013-03-29 09:15:00,
2013-03-29 04:25:00,31.4,30.1,30.23,ESE,116,10.0,11.5,95,0.00,,CLR,0.00,VWS V14.01,2013-03-29 09:25:00,
2013-03-29 04:30:00,31.5,30.2,30.23,SE,134,11.0,12.6,95,0.00,,CLR,0.00,VWS V14.01,2013-03-29 09:30:00,
2013-03-29 04:35:00,31.5,30.2,30.23,SE,126,11.0,11.5,95,0.00,,CLR,0.00,VWS V14.01,2013-03-29 09:35:00,
2013-03-29 04:40:00,31.7,30.4,30.23,ESE,121,11.0,14.7,95,0.00,,CLR,0.00,VWS V14.01,2013-03-29 09:40:00,
2013-03-29 04:45:00,31.7,30.4,30.23,ESE,117,12.0,12.6,95,0.00,,SCT070,0.00,VWS V14.01,2013-03-29 09:45:00,
2013-03-29 04:50:00,31.7,30.4,30.23,ESE,115,9.0,12.6,95,0.00,,SCT070,0.00,VWS V14.01,2013-03-29 09:50:00,
2013-03-29 04:55:00,31.5,30.2,30.23,ESE,117,7.0,10.5,95,0.00,,SCT070,0.00,VWS V14.01,2013-03-29 09:55:00,
2013-03-29 05:00:00,31.5,30.2,30.23,ESE,113,9.0,9.4,95,0.00,,SCT070,0.00,VWS V14.01,2013-03-29 10:00:00,
2013-03-29 05:10:00,31.5,30.2,30.23,ESE,121,9.0,11.5,95,0.00,,CLR,0.00,VWS V14.01,2013-03-29 10:10:00,
2013-03-29 05:15:00,31.5,30.2,30.23,ESE,122,8.0,11.5,95,0.00,,CLR,0.00,VWS V14.01,2013-03-29 10:15:00,
2013-03-29 05:25:00,31.9,30.6,30.22,SE,127,9.0,11.5,95,0.00,,CLR,0.00,VWS V14.01,2013-03-29 10:25:00,
2013-03-29 05:30:00,31.9,30.6,30.22,ESE,118,9.0,11.5,95,0.00,,CLR,0.00,VWS V14.01,2013-03-29 10:30:00,
2013-03-29 05:35:00,31.8,30.5,30.22,ESE,122,11.0,11.5,95,0.00,,CLR,0.00,VWS V14.01,2013-03-29 10:35:00,
2013-03-29 05:40:00,31.7,30.4,30.22,ESE,116,8.0,11.5,95,0.00,,CLR,0.00,VWS V14.01,2013-03-29 10:40:00,
2013-03-29 05:45:00,31.7,30.4,30.22,SE,132,5.0,9.4,95,0.00,,CLR,0.00,VWS V14.01,2013-03-29 10:45:00,
2013-03-29 05:50:00,31.7,30.4,30.23,SE,130,9.0,11.5,95,0.00,,CLR,0.00,VWS V14.01,2013-03-29 10:50:00,
2013-03-29 05:55:00,31.8,30.5,30.22,SE,131,8.0,11.5,95,0.00,,CLR,0.00,VWS V14.01,2013-03-29 10:55:00,
2013-03-29 06:00:00,31.7,30.4,30.22,SE,135,8.0,10.5,95,0.00,,CLR,0.00,VWS V14.01,2013-03-29 11:00:00,
2013-03-29 06:05:00,31.7,30.4,30.23,SE,129,8.0,10.5,95,0.00,,CLR,0.00,VWS V14.01,2013-03-29 11:05:00,
2013-03-29 06:10:00,31.5,30.2,30.23,SE,129,7.0,10.5,95,0.00,,CLR,0.00,VWS V14.01,2013-03-29 11:10:00,
2013-03-29 06:15:00,31.3,30.0,30.23,SE,132,8.0,10.5,95,0.00,,CLR,0.00,VWS V14.01,2013-03-29 11:15:00,
2013-03-29 06:20:00,31.0,29.7,30.23,SE,138,8.0,9.4,95,0.00,,CLR,0.00,VWS V14.01,2013-03-29 11:20:00,
2013-03-29 06:25:00,30.5,29.2,30.23,SE,134,8.0,9.4,95,0.00,,CLR,0.00,VWS V14.01,2013-03-29 11:25:00,
2013-03-29 06:30:00,30.3,29.0,30.22,SE,132,7.0,9.4,95,0.00,,CLR,0.00,VWS V14.01,2013-03-29 11:30:00,
2013-03-29 06:35:00,30.5,29.2,30.22,ESE,123,5.0,10.5,95,0.00,,CLR,0.00,VWS V14.01,2013-03-29 11:35:00,
2013-03-29 06:40:00,30.3,29.0,30.22,ESE,117,8.0,9.4,95,0.00,,CLR,0.00,VWS V14.01,2013-03-29 11:40:00,
2013-03-29 06:50:00,30.2,28.9,30.22,ESE,122,9.0,9.4,95,0.00,,CLR,0.00,VWS V14.01,2013-03-29 11:50:00,
2013-03-29 06:55:00,30.4,29.4,30.22,SE,130,9.0,9.4,96,0.00,,CLR,0.00,VWS V14.01,2013-03-29 11:55:00,
2013-03-29 07:00:00,30.7,29.7,30.23,SE,129,10.0,10.5,96,0.00,,CLR,0.00,VWS V14.01,2013-03-29 12:00:00,
2013-03-29 07:05:00,30.7,29.7,30.22,SE,126,8.0,11.5,96,0.00,,,0.00,VWS V14.01,2013-03-29 12:05:00,
2013-03-29 07:10:00,30.8,29.8,30.23,ESE,121,8.0,9.4,96,0.00,,,0.00,VWS V14.01,2013-03-29 12:10:00,
2013-03-29 07:15:00,30.4,29.1,30.23,ESE,113,8.0,9.4,95,0.00,,,0.00,VWS V14.01,2013-03-29 12:15:00,
2013-03-29 07:20:00,30.3,29.3,30.23,ESE,117,7.0,10.5,96,0.00,,,0.00,VWS V14.01,2013-03-29 12:20:00,
2013-03-29 07:25:00,30.1,28.8,30.23,ESE,119,5.0,8.4,95,0.00,,,0.00,VWS V14.01,2013-03-29 12:25:00,
2013-03-29 07:35:00,30.2,29.2,30.23,ESE,119,8.0,8.4,96,0.00,,,0.00,VWS V14.01,2013-03-29 12:35:00,
2013-03-29 07:40:00,30.8,29.8,30.23,ESE,119,7.0,9.4,96,0.00,,,0.00,VWS V14.01,2013-03-29 12:40:00,
2013-03-29 07:45:00,31.1,30.1,30.23,SE,128,7.0,8.4,96,0.00,,,0.00,VWS V14.01,2013-03-29 12:45:00,
2013-03-29 07:50:00,31.3,30.3,30.23,SE,127,7.0,9.4,96,0.00,,,0.00,VWS V14.01,2013-03-29 12:50:00,
2013-03-29 07:55:00,31.8,30.8,30.23,SE,129,9.0,11.5,96,0.00,,,0.00,VWS V14.01,2013-03-29 12:55:00,
2013-03-29 08:00:00,32.0,31.0,30.23,SE,127,8.0,10.5,96,0.00,,,0.00,VWS V14.01,2013-03-29 13:00:00,
2013-03-29 08:10:00,31.6,30.3,30.23,SE,128,5.0,9.4,95,0.00,,,0.00,VWS V14.01,2013-03-29 13:10:00,
2013-03-29 08:15:00,31.4,30.1,30.23,ESE,121,7.0,8.4,95,0.00,,,0.00,VWS V14.01,2013-03-29 13:15:00,
2013-03-29 08:20:00,31.3,30.3,30.23,ESE,121,8.0,10.5,96,0.00,,,0.00,VWS V14.01,2013-03-29 13:20:00,
2013-03-29 08:25:00,31.5,30.5,30.23,ESE,120,7.0,9.4,96,0.00,,,0.00,VWS V14.01,2013-03-29 13:25:00,
2013-03-29 08:30:00,32.0,31.0,30.23,ESE,116,7.0,9.4,96,0.00,,,0.00,VWS V14.01,2013-03-29 13:30:00,
2013-03-29 08:35:00,32.5,31.5,30.23,ESE,117,7.0,9.4,96,0.00,,,0.00,VWS V14.01,2013-03-29 13:35:00,
2013-03-29 08:40:00,32.6,31.3,30.23,ESE,123,5.0,8.4,95,0.00,,,0.00,VWS V14.01,2013-03-29 13:40:00,
2013-03-29 08:45:00,32.7,31.4,30.23,ESE,114,4.0,7.3,95,0.00,,CLR,0.00,VWS V14.01,2013-03-29 13:45:00,
2013-03-29 08:50:00,33.0,31.7,30.23,ESE,118,6.0,7.3,95,0.00,,CLR,0.00,VWS V14.01,2013-03-29 13:50:00,
2013-03-29 08:55:00,33.3,32.0,30.23,SE,127,5.0,8.4,95,0.00,,CLR,0.00,VWS V14.01,2013-03-29 13:55:00,
2013-03-29 09:00:00,33.7,32.4,30.23,SE,128,9.0,9.4,95,0.00,,CLR,0.00,VWS V14.01,2013-03-29 14:00:00,
2013-03-29 09:05:00,34.1,32.8,30.23,SE,126,8.0,11.5,95,0.00,,CLR,0.00,VWS V14.01,2013-03-29 14:05:00,
2013-03-29 09:10:00,34.3,32.8,30.23,ESE,123,9.0,12.6,94,0.00,,CLR,0.00,VWS V14.01,2013-03-29 14:10:00,
2013-03-29 09:15:00,34.2,32.7,30.22,SE,126,10.0,11.5,94,0.00,,CLR,0.00,VWS V14.01,2013-03-29 14:15:00,
2013-03-29 09:20:00,34.2,32.7,30.22,SE,130,9.0,11.5,94,0.00,,CLR,0.00,VWS V14.01,2013-03-29 14:20:00,
2013-03-29 09:25:00,34.3,32.8,30.23,ESE,121,8.0,10.5,94,0.00,,CLR,0.00,VWS V14.01,2013-03-29 14:25:00,
2013-03-29 09:35:00,34.6,33.0,30.23,SE,124,7.0,10.5,94,0.00,,CLR,0.00,VWS V14.01,2013-03-29 14:35:00,
2013-03-29 09:40:00,34.7,33.2,30.23,SE,128,7.0,10.5,94,0.00,,CLR,0.00,VWS V14.01,2013-03-29 14:40:00,
2013-03-29 09:45:00,34.8,33.2,30.23,ESE,119,7.0,8.4,94,0.00,,CLR,0.00,VWS V14.01,2013-03-29 14:45:00,
2013-03-29 09:50:00,34.8,33.2,30.23,ESE,121,8.0,10.5,94,0.00,,CLR,0.00,VWS V14.01,2013-03-29 14:50:00,
2013-03-29 09:55:00,35.0,33.5,30.23,ESE,117,8.0,10.5,94,0.00,,CLR,0.00,VWS V14.01,2013-03-29 14:55:00,
2013-03-29 10:00:00,35.1,33.3,30.22,SE,125,8.0,11.5,93,0.00,,CLR,0.00,VWS V14.01,2013-03-29 15:00:00,
2013-03-29 10:05:00,34.7,33.2,30.22,ESE,123,9.0,11.5,94,0.00,,CLR,0.00,VWS V14.01,2013-03-29 15:05:00,
2013-03-29 10:10:00,34.6,33.0,30.22,ESE,123,9.0,11.5,94,0.00,,CLR,0.00,VWS V14.01,2013-03-29 15:10:00,
2013-03-29 10:15:00,34.8,33.2,30.22,SE,124,10.0,12.6,94,0.00,,CLR,0.00,VWS V14.01,2013-03-29 15:15:00,
2013-03-29 10:20:00,34.9,33.3,30.22,SE,124,8.0,12.6,94,0.00,,CLR,0.00,VWS V14.01,2013-03-29 15:20:00,
2013-03-29 10:25:00,35.1,33.5,30.22,SE,129,8.0,10.5,94,0.00,,CLR,0.00,VWS V14.01,2013-03-29 15:25:00,
2013-03-29 10:30:00,35.4,33.8,30.22,SE,132,5.0,9.4,94,0.00,,CLR,0.00,VWS V14.01,2013-03-29 15:30:00,
2013-03-29 10:35:00,35.6,33.8,30.22,SE,129,5.0,10.5,93,0.00,,CLR,0.00,VWS V14.01,2013-03-29 15:35:00,
2013-03-29 10:40:00,35.7,33.9,30.22,SE,128,7.0,10.5,93,0.00,,CLR,0.00,VWS V14.01,2013-03-29 15:40:00,
2013-03-29 10:45:00,35.9,34.1,30.22,ESE,123,8.0,9.4,93,0.00,,CLR,0.00,VWS V14.01,2013-03-29 15:45:00,
2013-03-29 10:50:00,36.1,34.0,30.22,ESE,113,7.0,9.4,92,0.00,,CLR,0.00,VWS V14.01,2013-03-29 15:50:00,
2013-03-29 10:55:00,35.7,33.6,30.22,ESE,117,8.0,9.4,92,0.00,,CLR,0.00,VWS V14.01,2013-03-29 15:55:00,
2013-03-29 11:00:00,35.3,33.5,30.22,SE,126,10.0,11.5,93,0.00,,CLR,0.00,VWS V14.01,2013-03-29 16:00:00,
2013-03-29 11:05:00,35.4,33.6,30.22,SE,126,10.0,11.5,93,0.00,,CLR,0.00,VWS V14.01,2013-03-29 16:05:00,
2013-03-29 11:10:00,35.5,33.7,30.22,ESE,121,9.0,11.5,93,0.00,,CLR,0.00,VWS V14.01,2013-03-29 16:10:00,
2013-03-29 11:15:00,35.6,33.8,30.22,SE,128,11.0,12.6,93,0.00,,CLR,0.00,VWS V14.01,2013-03-29 16:15:00,
2013-03-29 11:20:00,35.6,33.8,30.21,SE,126,12.0,13.6,93,0.00,,CLR,0.00,VWS V14.01,2013-03-29 16:20:00,
2013-03-29 11:25:00,35.6,33.8,30.21,ESE,123,10.0,12.6,93,0.00,,CLR,0.00,VWS V14.01,2013-03-29 16:25:00,
2013-03-29 11:30:00,35.6,33.8,30.21,ESE,119,8.0,10.5,93,0.00,,CLR,0.00,VWS V14.01,2013-03-29 16:30:00,
2013-03-29 11:35:00,35.8,34.0,30.21,ESE,110,8.0,10.5,93,0.00,,CLR,0.00,VWS V14.01,2013-03-29 16:35:00,
2013-03-29 11:40:00,36.0,34.2,30.21,ESE,119,7.0,10.5,93,0.00,,CLR,0.00,VWS V14.01,2013-03-29 16:40:00,
2013-03-29 11:45:00,35.9,34.1,30.21,ESE,123,9.0,10.5,93,0.00,,CLR,0.00,VWS V14.01,2013-03-29 16:45:00,
2013-03-29 11:50:00,35.9,34.1,30.21,ESE,123,9.0,9.4,93,0.00,,CLR,0.00,VWS V14.01,2013-03-29 16:50:00,
2013-03-29 11:55:00,36.2,34.1,30.21,ESE,123,12.0,13.6,92,0.00,,CLR,0.00,VWS V14.01,2013-03-29 16:55:00,
2013-03-29 12:00:00,36.4,34.3,30.20,ESE,118,11.0,13.6,92,0.00,,CLR,0.00,VWS V14.01,2013-03-29 17:00:00,
2013-03-29 12:05:00,36.3,34.2,30.20,ESE,114,10.0,11.5,92,0.00,,CLR,0.00,VWS V14.01,2013-03-29 17:05:00,
2013-03-29 12:10:00,36.4,34.3,30.20,ESE,111,9.0,11.5,92,0.00,,CLR,0.00,VWS V14.01,2013-03-29 17:10:00,
2013-03-29 12:15:00,36.6,34.5,30.20,SE,124,9.0,11.5,92,0.00,,CLR,0.00,VWS V14.01,2013-03-29 17:15:00,
2013-03-29 12:20:00,36.7,34.3,30.20,ESE,116,8.0,11.5,91,0.00,,CLR,0.00,VWS V14.01,2013-03-29 17:20:00,
2013-03-29 12:25:00,36.9,34.5,30.20,ESE,108,7.0,11.5,91,0.00,,CLR,0.00,VWS V14.01,2013-03-29 17:25:00,
2013-03-29 12:30:00,37.0,34.6,30.20,ESE,115,8.0,11.5,91,0.00,,CLR,0.00,VWS V14.01,2013-03-29 17:30:00,
2013-03-29 12:35:00,37.0,34.6,30.19,ESE,109,8.0,11.5,91,0.00,,CLR,0.00,VWS V14.01,2013-03-29 17:35:00,
2013-03-29 12:40:00,37.0,34.6,30.19,ESE,113,11.0,11.5,91,0.00,,CLR,0.00,VWS V14.01,2013-03-29 17:40:00,
2013-03-29 12:45:00,37.0,34.6,30.19,ESE,115,11.0,12.6,91,0.00,,CLR,0.00,VWS V14.01,2013-03-29 17:45:00,
2013-03-29 12:50:00,37.0,34.6,30.19,ESE,116,10.0,12.6,91,0.00,,CLR,0.00,VWS V14.01,2013-03-29 17:50:00,
2013-03-29 12:55:00,37.1,34.7,30.19,ESE,117,11.0,12.6,91,0.00,,CLR,0.00,VWS V14.01,2013-03-29 17:55:00,
2013-03-29 13:00:00,37.3,34.9,30.19,ESE,115,9.0,12.6,91,0.00,,CLR,0.00,VWS V14.01,2013-03-29 18:00:00,
2013-03-29 13:05:00,37.4,35.0,30.19,ESE,112,8.0,12.6,91,0.00,,CLR,0.00,VWS V14.01,2013-03-29 18:05:00,
2013-03-29 13:10:00,37.4,35.0,30.19,ESE,105,9.0,11.5,91,0.00,,CLR,0.00,VWS V14.01,2013-03-29 18:10:00,
2013-03-29 13:15:00,37.4,35.0,30.19,ESE,112,9.0,11.5,91,0.00,,CLR,0.00,VWS V14.01,2013-03-29 18:15:00,
2013-03-29 13:20:00,37.4,35.0,30.18,ESE,107,10.0,11.5,91,0.00,,CLR,0.00,VWS V14.01,2013-03-29 18:20:00,
2013-03-29 13:25:00,37.3,34.9,30.18,ESE,114,10.0,11.5,91,0.00,,CLR,0.00,VWS V14.01,2013-03-29 18:25:00,
2013-03-29 13:30:00,37.3,34.9,30.18,ESE,122,9.0,12.6,91,0.00,,CLR,0.00,VWS V14.01,2013-03-29 18:30:00,
2013-03-29 13:35:00,37.4,35.3,30.18,ESE,117,10.0,13.6,92,0.00,,CLR,0.00,VWS V14.01,2013-03-29 18:35:00,
2013-03-29 13:45:00,37.4,35.3,30.17,ESE,105,9.0,11.5,92,0.00,,CLR,0.00,VWS V14.01,2013-03-29 18:45:00,
2013-03-29 13:50:00,37.3,35.2,30.17,ESE,105,9.0,11.5,92,0.00,,CLR,0.00,VWS V14.01,2013-03-29 18:50:00,
2013-03-29 14:00:00,37.1,35.0,30.16,East,101,9.0,10.5,92,0.00,,CLR,0.00,VWS V14.01,2013-03-29 19:00:00,
2013-03-29 14:05:00,37.1,35.3,30.16,East,98,9.0,10.5,93,0.00,,CLR,0.00,VWS V14.01,2013-03-29 19:05:00,
2013-03-29 14:15:00,37.1,35.3,30.16,East,101,9.0,11.5,93,0.00,,CLR,0.00,VWS V14.01,2013-03-29 19:15:00,
2013-03-29 14:20:00,37.1,35.3,30.15,ESE,103,10.0,12.6,93,0.00,,CLR,0.00,VWS V14.01,2013-03-29 19:20:00,
2013-03-29 14:25:00,37.1,35.3,30.15,East,97,10.0,12.6,93,0.00,,CLR,0.00,VWS V14.01,2013-03-29 19:25:00,
2013-03-29 14:30:00,37.2,35.4,30.15,East,101,12.0,12.6,93,0.00,,CLR,0.00,VWS V14.01,2013-03-29 19:30:00,
2013-03-29 14:35:00,37.3,35.5,30.15,East,101,11.0,12.6,93,0.00,,CLR,0.00,VWS V14.01,2013-03-29 19:35:00,
2013-03-29 14:45:00,37.6,35.8,30.14,East,99,8.0,12.6,93,0.00,,CLR,0.00,VWS V14.01,2013-03-29 19:45:00,
2013-03-29 14:50:00,37.7,35.9,30.14,East,101,11.0,11.5,93,0.00,,CLR,0.00,VWS V14.01,2013-03-29 19:50:00,
2013-03-29 15:00:00,38.0,36.2,30.13,ESE,105,9.0,12.6,93,0.00,,CLR,0.00,VWS V14.01,2013-03-29 20:00:00,
2013-03-29 15:10:00,38.3,36.5,30.13,East,98,11.0,13.6,93,0.00,,CLR,0.00,VWS V14.01,2013-03-29 20:10:00,
2013-03-29 15:15:00,38.4,36.6,30.12,East,100,13.0,13.6,93,0.00,,CLR,0.00,VWS V14.01,2013-03-29 20:15:00,
2013-03-29 15:20:00,38.5,36.7,30.12,East,92,12.0,13.6,93,0.00,,CLR,0.00,VWS V14.01,2013-03-29 20:20:00,
2013-03-29 15:25:00,38.6,36.8,30.12,East,101,11.0,13.6,93,0.00,,CLR,0.00,VWS V14.01,2013-03-29 20:25:00,
2013-03-29 15:30:00,38.7,36.8,30.11,East,96,12.0,13.6,93,0.00,,CLR,0.00,VWS V14.01,2013-03-29 20:30:00,
2013-03-29 15:35:00,38.7,36.8,30.11,ESE,102,11.0,13.6,93,0.00,,CLR,0.00,VWS V14.01,2013-03-29 20:35:00,
2013-03-29 15:45:00,38.8,37.0,30.11,East,101,9.0,13.6,93,0.00,,CLR,0.00,VWS V14.01,2013-03-29 20:45:00,
2013-03-29 15:50:00,38.8,37.0,30.10,East,94,11.0,13.6,93,0.00,,CLR,0.00,VWS V14.01,2013-03-29 20:50:00,
2013-03-29 15:55:00,38.9,37.0,30.10,East,96,11.0,13.6,93,0.00,,CLR,0.00,VWS V14.01,2013-03-29 20:55:00,
2013-03-29 16:00:00,39.1,37.5,30.10,East,101,11.0,13.6,94,0.00,,CLR,0.00,VWS V14.01,2013-03-29 21:00:00,
2013-03-29 16:10:00,39.3,37.5,30.09,ESE,107,12.0,13.6,93,0.00,,CLR,0.00,VWS V14.01,2013-03-29 21:10:00,
2013-03-29 16:15:00,39.3,37.5,30.09,East,96,12.0,13.6,93,0.00,,CLR,0.00,VWS V14.01,2013-03-29 21:15:00,
2013-03-29 16:25:00,39.4,37.5,30.09,East,100,9.0,12.6,93,0.00,,CLR,0.00,VWS V14.01,2013-03-29 21:25:00,
2013-03-29 16:35:00,39.3,37.5,30.08,ESE,105,9.0,11.5,93,0.00,,CLR,0.00,VWS V14.01,2013-03-29 21:35:00,
2013-03-29 16:45:00,39.5,37.9,30.08,ESE,103,9.0,10.5,94,0.00,,CLR,0.00,VWS V14.01,2013-03-29 21:45:00,
2013-03-29 16:50:00,39.7,37.8,30.08,ESE,103,9.0,11.5,93,0.00,,CLR,0.00,VWS V14.01,2013-03-29 21:50:00,
2013-03-29 16:55:00,39.6,37.8,30.08,ESE,104,9.0,10.5,93,0.00,,CLR,0.00,VWS V14.01,2013-03-29 21:55:00,
2013-03-29 17:00:00,39.6,37.8,30.08,ESE,109,8.0,9.4,93,0.00,,CLR,0.00,VWS V14.01,2013-03-29 22:00:00,
2013-03-29 17:05:00,39.6,37.8,30.08,ESE,108,7.0,8.4,93,0.00,,CLR,0.00,VWS V14.01,2013-03-29 22:05:00,
2013-03-29 17:10:00,39.8,38.0,30.07,ESE,111,8.0,9.4,93,0.00,,CLR,0.00,VWS V14.01,2013-03-29 22:10:00,
2013-03-29 17:15:00,40.0,38.1,30.07,ESE,113,7.0,8.4,93,0.00,,CLR,0.00,VWS V14.01,2013-03-29 22:15:00,
2013-03-29 17:20:00,40.2,38.3,30.07,ESE,122,5.0,7.3,93,0.00,,CLR,0.00,VWS V14.01,2013-03-29 22:20:00,
2013-03-29 17:25:00,40.8,38.7,30.07,ESE,117,7.0,8.4,92,0.00,,CLR,0.00,VWS V14.01,2013-03-29 22:25:00,
2013-03-29 17:30:00,41.0,38.6,30.07,ESE,114,7.0,8.4,91,0.00,,CLR,0.00,VWS V14.01,2013-03-29 22:30:00,
2013-03-29 17:40:00,41.5,38.8,30.07,ESE,123,5.0,9.4,90,0.00,,CLR,0.00,VWS V14.01,2013-03-29 22:40:00,
2013-03-29 17:45:00,41.6,38.9,30.07,ESE,123,5.0,8.4,90,0.00,,CLR,0.00,VWS V14.01,2013-03-29 22:45:00,
2013-03-29 17:50:00,41.5,38.8,30.07,ESE,123,5.0,5.2,90,0.00,,CLR,0.00,VWS V14.01,2013-03-29 22:50:00,
2013-03-29 17:55:00,41.5,38.8,30.06,SE,128,5.0,5.2,90,0.00,,CLR,0.00,VWS V14.01,2013-03-29 22:55:00,
2013-03-29 18:00:00,41.6,38.9,30.07,SE,128,4.0,5.2,90,0.00,,CLR,0.00,VWS V14.01,2013-03-29 23:00:00,
2013-03-29 18:10:00,41.2,38.5,30.06,SE,128,4.0,5.2,90,0.00,,CLR,0.00,VWS V14.01,2013-03-29 23:10:00,
2013-03-29 18:15:00,41.4,38.7,30.06,SE,129,4.0,5.2,90,0.00,,CLR,0.00,VWS V14.01,2013-03-29 23:15:00,
2013-03-29 18:20:00,41.8,39.1,30.06,SE,130,7.0,8.4,90,0.00,,CLR,0.00,VWS V14.01,2013-03-29 23:20:00,
2013-03-29 18:25:00,42.1,39.1,30.06,SE,133,7.0,8.4,89,0.00,,CLR,0.00,VWS V14.01,2013-03-29 23:25:00,
2013-03-29 18:30:00,42.0,38.7,30.06,SE,135,8.0,9.4,88,0.00,,CLR,0.00,VWS V14.01,2013-03-29 23:30:00,
2013-03-29 18:35:00,41.9,38.6,30.06,SE,135,8.0,9.4,88,0.00,,CLR,0.00,VWS V14.01,2013-03-29 23:35:00,
2013-03-29 18:40:00,41.7,38.7,30.06,SE,137,9.0,9.4,89,0.00,,CLR,0.00,VWS V14.01,2013-03-29 23:40:00,
2013-03-29 18:45:00,41.5,38.5,30.05,SE,137,9.0,10.5,89,0.00,,CLR,0.00,VWS V14.01,2013-03-29 23:45:00,
2013-03-29 18:50:00,41.3,38.6,30.05,SE,135,10.0,10.5,90,0.00,,CLR,0.00,VWS V14.01,2013-03-29 23:50:00,
2013-03-29 18:55:00,41.3,38.3,30.05,SE,138,10.0,10.5,89,0.00,,CLR,0.00,VWS V14.01,2013-03-29 23:55:00,
2013-03-29 19:00:00,41.2,38.5,30.05,SE,135,9.0,10.5,90,0.00,,CLR,0.00,VWS V14.01,2013-03-30 00:00:00,
2013-03-29 19:05:00,41.3,38.6,30.05,SE,132,9.0,10.5,90,0.00,,CLR,0.00,VWS V14.01,2013-03-30 00:05:00,
2013-03-29 19:10:00,41.5,38.8,30.05,SE,130,9.0,11.5,90,0.00,,CLR,0.00,VWS V14.01,2013-03-30 00:10:00,
2013-03-29 19:15:00,41.4,38.7,30.05,SE,138,10.0,11.5,90,0.00,,CLR,0.00,VWS V14.01,2013-03-30 00:15:00,
2013-03-29 19:20:00,41.3,38.6,30.05,SE,134,10.0,11.5,90,0.00,,CLR,0.00,VWS V14.01,2013-03-30 00:20:00,
2013-03-29 19:30:00,41.2,38.8,30.04,SE,134,9.0,12.6,91,0.00,,CLR,0.00,VWS V14.01,2013-03-30 00:30:00,
2013-03-29 19:35:00,41.3,38.9,30.04,SE,130,10.0,12.6,91,0.00,,CLR,0.00,VWS V14.01,2013-03-30 00:35:00,
2013-03-29 19:45:00,41.3,38.9,30.04,SE,132,10.0,12.6,91,0.00,,CLR,0.00,VWS V14.01,2013-03-30 00:45:00,
2013-03-29 19:50:00,41.1,38.7,30.04,SE,134,10.0,11.5,91,0.00,,CLR,0.00,VWS V14.01,2013-03-30 00:50:00,
2013-03-29 19:55:00,41.1,38.7,30.04,SE,135,9.0,11.5,91,0.00,,CLR,0.00,VWS V14.01,2013-03-30 00:55:00,
2013-03-29 20:00:00,41.0,38.6,30.04,SE,133,9.0,10.5,91,0.00,,CLR,0.00,VWS V14.01,2013-03-30 01:00:00,
2013-03-29 20:05:00,41.2,39.1,30.04,SE,132,9.0,10.5,92,0.00,,CLR,0.00,VWS V14.01,2013-03-30 01:05:00,
2013-03-29 20:10:00,41.3,39.2,30.04,SE,134,11.0,11.5,92,0.00,,CLR,0.00,VWS V14.01,2013-03-30 01:10:00,
2013-03-29 20:15:00,41.4,39.2,30.04,SE,132,9.0,11.5,92,0.00,,CLR,0.00,VWS V14.01,2013-03-30 01:15:00,
2013-03-29 20:20:00,41.3,39.2,30.03,SE,134,11.0,12.6,92,0.00,,CLR,0.00,VWS V14.01,2013-03-30 01:20:00,
2013-03-29 20:25:00,41.2,39.1,30.03,SE,136,11.0,12.6,92,0.00,,CLR,0.00,VWS V14.01,2013-03-30 01:25:00,
2013-03-29 20:30:00,41.1,39.0,30.03,SE,137,11.0,12.6,92,0.00,,CLR,0.00,VWS V14.01,2013-03-30 01:30:00,
2013-03-29 20:35:00,41.2,39.1,30.03,SE,134,11.0,11.5,92,0.00,,CLR,0.00,VWS V14.01,2013-03-30 01:35:00,
2013-03-29 20:40:00,41.4,39.2,30.03,SE,134,10.0,12.6,92,0.00,,CLR,0.00,VWS V14.01,2013-03-30 01:40:00,
2013-03-29 20:45:00,41.5,39.3,30.03,SE,132,11.0,12.6,92,0.00,,CLR,0.00,VWS V14.01,2013-03-30 01:45:00,
2013-03-29 20:50:00,41.5,39.1,30.03,SE,132,11.0,12.6,91,0.00,,CLR,0.00,VWS V14.01,2013-03-30 01:50:00,
2013-03-29 20:55:00,41.5,39.1,30.03,SE,128,10.0,12.6,91,0.00,,CLR,0.00,VWS V14.01,2013-03-30 01:55:00,
2013-03-29 21:00:00,41.5,39.1,30.03,SE,128,10.0,10.5,91,0.00,,CLR,0.00,VWS V14.01,2013-03-30 02:00:00,
2013-03-29 21:05:00,41.5,39.1,30.03,SE,128,10.0,10.5,91,0.00,,CLR,0.00,VWS V14.01,2013-03-30 02:05:00,
2013-03-29 21:10:00,41.5,39.1,30.03,SE,128,10.0,10.5,91,0.00,,CLR,0.00,VWS V14.01,2013-03-30 02:10:00,
2013-03-29 21:15:00,41.5,39.1,30.03,SE,128,10.0,10.5,91,0.00,,CLR,0.00,VWS V14.01,2013-03-30 02:15:00,
2013-03-29 21:20:00,40.7,38.6,30.03,SE,144,9.0,11.5,92,0.00,,CLR,0.00,VWS V14.01,2013-03-30 02:20:00,
2013-03-29 21:25:00,40.6,38.5,30.03,SE,132,9.0,11.5,92,0.00,,CLR,0.00,VWS V14.01,2013-03-30 02:25:00,
2013-03-29 21:30:00,40.5,38.4,30.03,SE,132,11.0,11.5,92,0.00,,CLR,0.00,VWS V14.01,2013-03-30 02:30:00,
2013-03-29 21:35:00,40.5,38.4,30.03,SE,134,9.0,12.6,92,0.00,,CLR,0.00,VWS V14.01,2013-03-30 02:35:00,
2013-03-29 21:40:00,40.6,38.5,30.03,SE,131,11.0,12.6,92,0.00,,CLR,0.00,VWS V14.01,2013-03-30 02:40:00,
2013-03-29 21:45:00,40.7,38.6,30.03,SE,134,10.0,13.6,92,0.00,,CLR,0.00,VWS V14.01,2013-03-30 02:45:00,
2013-03-29 21:50:00,40.6,38.5,30.02,SE,128,9.0,12.6,92,0.00,,CLR,0.00,VWS V14.01,2013-03-30 02:50:00,
2013-03-29 21:55:00,40.7,38.6,30.02,SE,129,9.0,12.6,92,0.00,,CLR,0.00,VWS V14.01,2013-03-30 02:55:00,
2013-03-29 22:00:00,40.7,38.6,30.02,SE,128,9.0,13.6,92,0.00,,CLR,0.00,VWS V14.01,2013-03-30 03:00:00,
2013-03-29 22:05:00,40.7,38.6,30.02,SE,128,9.0,13.6,92,0.00,,CLR,0.00,VWS V14.01,2013-03-30 03:05:00,
2013-03-29 22:10:00,40.7,38.6,30.02,ESE,121,11.0,13.6,92,0.00,,CLR,0.00,VWS V14.01,2013-03-30 03:10:00,
2013-03-29 22:15:00,40.6,38.5,30.02,ESE,123,11.0,13.6,92,0.00,,CLR,0.00,VWS V14.01,2013-03-30 03:15:00,
2013-03-29 22:20:00,40.5,38.4,30.01,SE,128,12.0,14.7,92,0.00,,CLR,0.00,VWS V14.01,2013-03-30 03:20:00,
2013-03-29 22:25:00,40.5,38.4,30.01,SE,130,12.0,15.7,92,0.00,,CLR,0.00,VWS V14.01,2013-03-30 03:25:00,
2013-03-29 22:30:00,40.6,38.5,30.01,SE,126,12.0,15.7,92,0.00,,CLR,0.00,VWS V14.01,2013-03-30 03:30:00,
2013-03-29 22:40:00,40.3,38.2,30.01,ESE,117,11.0,14.7,92,0.00,,CLR,0.00,VWS V14.01,2013-03-30 03:40:00,
2013-03-29 22:45:00,40.2,38.1,30.01,ESE,121,12.0,14.7,92,0.00,,CLR,0.00,VWS V14.01,2013-03-30 03:45:00,
2013-03-29 22:50:00,40.1,38.0,30.01,SE,128,11.0,15.7,92,0.00,,CLR,0.00,VWS V14.01,2013-03-30 03:50:00,
2013-03-29 22:55:00,40.1,38.0,30.00,SE,126,14.0,14.7,92,0.00,,CLR,0.00,VWS V14.01,2013-03-30 03:55:00,
2013-03-29 23:00:00,40.0,37.9,30.00,SE,127,11.0,14.7,92,0.00,,CLR,0.00,VWS V14.01,2013-03-30 04:00:00,
2013-03-29 23:05:00,39.8,38.0,30.00,SE,128,12.0,14.7,93,0.00,,CLR,0.00,VWS V14.01,2013-03-30 04:05:00,
2013-03-29 23:10:00,39.8,38.0,30.00,ESE,120,13.0,14.7,93,0.00,,CLR,0.00,VWS V14.01,2013-03-30 04:10:00,
2013-03-29 23:15:00,40.0,38.1,29.99,SE,132,12.0,15.7,93,0.00,,CLR,0.00,VWS V14.01,2013-03-30 04:15:00,
2013-03-29 23:20:00,39.7,37.8,29.99,SE,127,14.0,15.7,93,0.00,,CLR,0.00,VWS V14.01,2013-03-30 04:20:00,
2013-03-29 23:25:00,39.7,37.8,29.99,SE,129,10.0,14.7,93,0.00,,CLR,0.00,VWS V14.01,2013-03-30 04:25:00,
2013-03-29 23:30:00,39.6,37.8,29.99,ESE,123,13.0,13.6,93,0.00,,CLR,0.00,VWS V14.01,2013-03-30 04:30:00,
2013-03-29 23:35:00,39.4,37.5,29.99,SE,132,11.0,13.6,93,0.00,,CLR,0.00,VWS V14.01,2013-03-30 04:35:00,
2013-03-29 23:40:00,39.4,37.5,29.99,SE,135,11.0,13.6,93,0.00,,CLR,0.00,VWS V14.01,2013-03-30 04:40:00,
2013-03-29 23:45:00,39.2,37.1,29.98,SE,129,10.0,12.6,92,0.00,,CLR,0.00,VWS V14.01,2013-03-30 04:45:00,
2013-03-29 23:50:00,39.5,37.7,29.98,SE,124,10.0,12.6,93,0.00,,CLR,0.00,VWS V14.01,2013-03-30 04:50:00,
2013-03-29 23:55:00,39.6,37.5,29.98,SE,128,10.0,11.5,92,0.00,,CLR,0.00,VWS V14.01,2013-03-30 04:55:00,